Time;durP1;ratioP1;P1;durP2;ratioP2;P2;SDS_P1;SDS_P2;PMS_P1;PMS_P2;Temp;Humidity;BMP_temperature;BMP_pressure;BME280_temperature;BME280_humidity;BME280_pressure;Samples;Min_cycle;Max_cycle;Signal;HPM_P1;HPM_P2
2023/03/04 00:00:45;;;;;;;;;;;11.40;45.90;;;;;;4984423;28;19922;-91
2023/03/04 00:03:10;;;;;;;;;;;11.30;45.90;;;;;;4992378;28;20001;-91
2023/03/04 00:05:36;;;;;;;;;;;11.30;45.80;;;;;;4988123;28;20008;-90
2023/03/04 00:08:02;;;;;;;;;;;11.30;45.90;;;;;;4977281;28;19941;-89
2023/03/04 00:10:30;;;;;;;;;;;11.30;45.90;;;;;;4987389;28;19953;-89
2023/03/04 00:12:56;;;;;;;;;;;11.30;45.80;;;;;;4990869;28;19913;-95
2023/03/04 00:15:21;;;;;;;;;;;11.30;45.80;;;;;;4988624;28;20639;-94
2023/03/04 00:17:47;;;;;;;;;;;11.30;45.80;;;;;;4991222;28;19948;-89
2023/03/04 00:20:13;;;;;;;;;;;11.30;45.70;;;;;;5004660;28;19940;-92
2023/03/04 00:22:38;;;;;;;;;;;11.30;45.60;;;;;;4997092;28;20005;-94
2023/03/04 00:25:04;;;;;;;;;;;11.30;45.60;;;;;;4990260;28;19914;-92
2023/03/04 00:27:29;;;;;;;;;;;11.30;45.60;;;;;;4988636;28;19926;-94
2023/03/04 00:29:55;;;;;;;;;;;11.30;45.60;;;;;;4993816;28;19918;-91
2023/03/04 00:32:21;;;;;;;;;;;11.30;45.60;;;;;;4989718;28;19972;-94
2023/03/04 00:34:46;;;;;;;;;;;11.30;45.50;;;;;;4994329;28;19920;-91
2023/03/04 00:37:12;;;;;;;;;;;11.30;45.50;;;;;;4989901;28;20016;-91
2023/03/04 00:39:37;;;;;;;;;;;11.30;45.50;;;;;;4984343;28;20393;-89
2023/03/04 00:42:03;;;;;;;;;;;11.40;45.50;;;;;;4987015;28;19918;-91
2023/03/04 00:44:29;;;;;;;;;;;11.40;45.50;;;;;;4990204;28;19992;-94
2023/03/04 00:46:55;;;;;;;;;;;11.30;45.50;;;;;;4990848;28;20029;-92
2023/03/04 00:49:20;;;;;;;;;;;11.40;45.50;;;;;;4991526;28;19925;-91
2023/03/04 00:51:46;;;;;;;;;;;11.40;45.50;;;;;;4992700;28;19953;-94
2023/03/04 00:54:11;;;;;;;;;;;11.40;45.50;;;;;;4991314;28;19983;-90
2023/03/04 00:56:38;;;;;;;;;;;11.40;45.50;;;;;;4992085;28;19921;-89
2023/03/04 00:59:03;;;;;;;;;;;11.40;45.50;;;;;;4992104;28;19910;-94
2023/03/04 01:01:29;;;;;;;;;;;11.40;45.30;;;;;;4990492;28;19925;-89
2023/03/04 01:03:54;;;;;;;;;;;11.40;45.30;;;;;;4992326;28;19972;-93
2023/03/04 01:06:20;;;;;;;;;;;11.40;45.40;;;;;;4992224;28;19921;-91
2023/03/04 01:08:46;;;;;;;;;;;11.50;45.50;;;;;;4991680;28;19953;-90
2023/03/04 01:11:11;;;;;;;;;;;11.40;45.50;;;;;;4991805;28;19925;-89
2023/03/04 01:13:37;;;;;;;;;;;11.50;45.50;;;;;;4990395;28;19920;-91
2023/03/04 01:16:03;;;;;;;;;;;11.50;45.50;;;;;;4991768;28;20471;-94
2023/03/04 01:18:31;;;;;;;;;;;11.50;45.50;;;;;;4991896;28;19910;-90
2023/03/04 01:20:57;;;;;;;;;;;11.40;45.40;;;;;;4989581;28;20365;-94
2023/03/04 01:23:23;;;;;;;;;;;11.40;45.50;;;;;;4991603;28;19913;-90
2023/03/04 01:25:48;;;;;;;;;;;11.40;45.30;;;;;;4990127;28;19918;-89
2023/03/04 01:28:14;;;;;;;;;;;11.40;45.30;;;;;;4989845;28;19914;-88
2023/03/04 01:30:39;;;;;;;;;;;11.40;45.40;;;;;;4990504;28;19926;-94
2023/03/04 01:33:05;;;;;;;;;;;11.30;45.40;;;;;;4990179;28;19917;-88
2023/03/04 01:35:30;;;;;;;;;;;11.30;45.50;;;;;;4990724;28;19918;-93
2023/03/04 01:37:56;;;;;;;;;;;11.40;45.50;;;;;;4989614;28;19932;-91
2023/03/04 01:40:22;;;;;;;;;;;11.40;45.50;;;;;;4991791;28;19917;-95
2023/03/04 01:42:47;;;;;;;;;;;11.40;45.50;;;;;;4989846;28;19967;-91
2023/03/04 01:45:14;;;;;;;;;;;11.40;45.50;;;;;;4990125;28;19918;-89
2023/03/04 01:47:42;;;;;;;;;;;11.50;45.50;;;;;;4989242;28;20027;-95
2023/03/04 01:50:12;;;;;;;;;;;11.50;45.50;;;;;;4991371;28;20012;-89
2023/03/04 01:52:41;;;;;;;;;;;11.50;45.50;;;;;;4991798;28;20010;-91
2023/03/04 01:55:25;;;;;;;;;;;11.50;45.50;;;;;;4990899;28;19918;-90
2023/03/04 01:57:52;;;;;;;;;;;11.50;45.50;;;;;;4970665;28;20316;-88
2023/03/04 02:00:31;;;;;;;;;;;11.60;45.50;;;;;;4985766;28;19920;-90
2023/03/04 02:03:07;;;;;;;;;;;11.60;45.50;;;;;;4986298;28;20375;-92
2023/03/04 02:05:34;;;;;;;;;;;11.60;45.50;;;;;;4986985;28;20265;-90
2023/03/04 02:08:00;;;;;;;;;;;11.60;45.50;;;;;;4972472;28;19929;-88
2023/03/04 02:10:26;;;;;;;;;;;11.60;45.40;;;;;;4981349;28;20312;-94
2023/03/04 02:12:52;;;;;;;;;;;11.60;45.50;;;;;;4991873;28;19998;-94
2023/03/04 02:15:18;;;;;;;;;;;11.60;45.50;;;;;;4991125;28;19913;-89
2023/03/04 02:17:43;;;;;;;;;;;11.60;45.50;;;;;;4990511;28;19993;-89
2023/03/04 02:20:18;;;;;;;;;;;11.60;45.50;;;;;;4989980;28;19913;-91
2023/03/04 02:22:56;;;;;;;;;;;11.50;45.60;;;;;;4990984;28;20025;-94
2023/03/04 02:25:24;;;;;;;;;;;11.60;45.70;;;;;;4993230;28;19938;-91
2023/03/04 02:27:50;;;;;;;;;;;11.60;45.70;;;;;;4991717;28;19941;-92
2023/03/04 02:30:16;;;;;;;;;;;11.60;45.70;;;;;;4991626;28;19917;-91
2023/03/04 02:32:42;;;;;;;;;;;11.60;45.70;;;;;;4991421;28;19926;-89
2023/03/04 02:35:13;;;;;;;;;;;11.50;45.50;;;;;;4976847;28;19917;-94
2023/03/04 02:37:38;;;;;;;;;;;11.50;45.50;;;;;;4972387;28;19966;-92
2023/03/04 02:40:05;;;;;;;;;;;11.50;45.60;;;;;;4971474;28;20620;-89
2023/03/04 02:42:30;;;;;;;;;;;11.50;45.60;;;;;;4977038;28;19917;-90
2023/03/04 02:45:00;;;;;;;;;;;11.50;45.70;;;;;;4991089;28;19932;-92
2023/03/04 02:47:25;;;;;;;;;;;11.50;45.80;;;;;;4990496;28;19914;-94
2023/03/04 02:49:51;;;;;;;;;;;11.50;45.80;;;;;;4993061;28;19926;-89
2023/03/04 02:52:18;;;;;;;;;;;11.60;45.80;;;;;;4994764;28;19918;-89
2023/03/04 02:54:43;;;;;;;;;;;11.60;45.80;;;;;;4994868;28;19946;-89
2023/03/04 02:57:10;;;;;;;;;;;11.70;45.80;;;;;;4992916;28;19964;-91
2023/03/04 02:59:37;;;;;;;;;;;11.70;45.70;;;;;;4994656;28;19922;-93
2023/03/04 03:02:02;;;;;;;;;;;11.70;45.70;;;;;;4995001;28;20320;-94
2023/03/04 03:04:28;;;;;;;;;;;11.70;45.70;;;;;;4993826;28;19914;-89
2023/03/04 03:06:53;;;;;;;;;;;11.70;45.70;;;;;;4992807;28;20348;-89
2023/03/04 03:09:19;;;;;;;;;;;11.80;45.70;;;;;;4991978;28;19914;-91
2023/03/04 03:11:45;;;;;;;;;;;11.80;45.70;;;;;;4994523;28;19914;-92
2023/03/04 03:14:10;;;;;;;;;;;11.70;45.70;;;;;;4995802;28;19917;-90
2023/03/04 03:16:36;;;;;;;;;;;11.70;45.70;;;;;;4993493;28;19963;-91
2023/03/04 03:19:01;;;;;;;;;;;11.70;45.80;;;;;;4992486;28;20012;-94
2023/03/04 03:21:27;;;;;;;;;;;11.70;45.80;;;;;;4994158;28;19913;-90
2023/03/04 03:23:53;;;;;;;;;;;11.70;45.80;;;;;;4992327;28;20285;-94
2023/03/04 03:26:18;;;;;;;;;;;11.70;45.80;;;;;;4992074;28;19910;-90
2023/03/04 03:28:44;;;;;;;;;;;11.70;45.90;;;;;;4994298;28;19965;-89
2023/03/04 03:31:09;;;;;;;;;;;11.70;45.90;;;;;;4994707;28;20369;-91
2023/03/04 03:33:35;;;;;;;;;;;11.70;45.90;;;;;;4995035;28;20365;-94
2023/03/04 03:36:01;;;;;;;;;;;11.70;45.90;;;;;;4993149;28;19921;-91
2023/03/04 03:38:27;;;;;;;;;;;11.60;45.90;;;;;;4993128;28;20016;-91
2023/03/04 03:40:52;;;;;;;;;;;11.60;45.90;;;;;;4992424;28;20361;-94
2023/03/04 03:43:18;;;;;;;;;;;11.60;46.00;;;;;;4994061;28;19964;-93
2023/03/04 03:45:44;;;;;;;;;;;11.60;45.90;;;;;;4992799;28;19918;-91
2023/03/04 03:48:09;;;;;;;;;;;11.60;46.00;;;;;;4993590;28;19918;-92
2023/03/04 03:50:35;;;;;;;;;;;11.50;46.00;;;;;;4992293;28;19922;-90
2023/03/04 03:53:01;;;;;;;;;;;11.60;46.00;;;;;;4994347;28;19980;-95
2023/03/04 03:55:26;;;;;;;;;;;11.60;46.00;;;;;;4993322;28;19969;-90
2023/03/04 03:57:52;;;;;;;;;;;11.60;46.00;;;;;;4992299;28;20357;-92
2023/03/04 04:00:17;;;;;;;;;;;11.60;45.80;;;;;;4992129;28;20088;-90
2023/03/04 04:02:43;;;;;;;;;;;11.60;45.90;;;;;;4992576;28;19992;-91
2023/03/04 04:05:09;;;;;;;;;;;11.60;45.90;;;;;;4990671;28;19916;-91
2023/03/04 04:07:35;;;;;;;;;;;11.50;45.90;;;;;;4975408;28;20440;-91
2023/03/04 04:10:00;;;;;;;;;;;11.50;45.90;;;;;;4972237;28;19919;-94
2023/03/04 04:12:26;;;;;;;;;;;11.60;45.90;;;;;;4972760;28;20009;-91
2023/03/04 04:14:51;;;;;;;;;;;11.60;46.00;;;;;;4974803;28;19915;-94
2023/03/04 04:17:17;;;;;;;;;;;11.60;45.90;;;;;;4973953;28;19926;-94
2023/03/04 04:19:43;;;;;;;;;;;11.60;45.90;;;;;;4974009;28;19920;-91
2023/03/04 04:22:12;;;;;;;;;;;11.60;45.90;;;;;;4973824;28;20016;-89
2023/03/04 04:24:38;;;;;;;;;;;11.70;45.90;;;;;;4973783;28;19969;-93
2023/03/04 04:27:04;;;;;;;;;;;11.70;45.90;;;;;;4973845;28;19922;-90
2023/03/04 04:29:29;;;;;;;;;;;11.70;45.80;;;;;;4971706;28;19958;-94
2023/03/04 04:31:55;;;;;;;;;;;11.70;45.80;;;;;;4971938;28;19914;-92
2023/03/04 04:34:21;;;;;;;;;;;11.70;45.80;;;;;;4973451;28;20536;-91
2023/03/04 04:36:46;;;;;;;;;;;11.70;45.80;;;;;;4974574;28;19936;-91
2023/03/04 04:39:12;;;;;;;;;;;11.70;45.80;;;;;;4970959;28;20012;-88
2023/03/04 04:41:41;;;;;;;;;;;11.70;45.90;;;;;;4991669;28;19922;-89
2023/03/04 04:44:07;;;;;;;;;;;11.70;45.80;;;;;;4989711;28;20012;-89
2023/03/04 04:46:32;;;;;;;;;;;11.70;45.90;;;;;;4992505;28;19972;-91
2023/03/04 04:48:58;;;;;;;;;;;11.70;45.90;;;;;;4991132;28;19969;-93
2023/03/04 04:51:24;;;;;;;;;;;11.70;45.90;;;;;;4991307;28;19934;-93
2023/03/04 04:53:50;;;;;;;;;;;11.70;46.00;;;;;;4991121;28;19928;-90
2023/03/04 04:56:18;;;;;;;;;;;11.70;46.00;;;;;;4991020;28;20254;-88
2023/03/04 04:58:44;;;;;;;;;;;11.70;46.10;;;;;;4991916;28;19940;-90
2023/03/04 05:01:10;;;;;;;;;;;11.70;46.10;;;;;;4985444;28;19940;-93
2023/03/04 05:03:36;;;;;;;;;;;11.70;46.20;;;;;;4971461;28;19910;-93
2023/03/04 05:06:02;;;;;;;;;;;11.70;46.20;;;;;;4973986;28;19918;-88
2023/03/04 05:08:27;;;;;;;;;;;11.70;46.20;;;;;;4973817;28;19910;-94
2023/03/04 05:10:53;;;;;;;;;;;11.70;46.20;;;;;;4972817;28;19926;-91
2023/03/04 05:13:18;;;;;;;;;;;11.70;46.20;;;;;;4980807;28;19986;-89
2023/03/04 05:15:44;;;;;;;;;;;11.70;46.30;;;;;;4992055;28;20387;-90
2023/03/04 05:18:10;;;;;;;;;;;11.70;46.30;;;;;;4991192;28;19949;-91
2023/03/04 05:20:36;;;;;;;;;;;11.70;46.30;;;;;;4990116;28;19953;-90
2023/03/04 05:23:01;;;;;;;;;;;11.70;46.30;;;;;;4991615;28;19957;-94
2023/03/04 05:25:27;;;;;;;;;;;11.70;46.30;;;;;;4994996;28;19924;-95
2023/03/04 05:27:52;;;;;;;;;;;11.70;46.40;;;;;;4992303;28;19957;-91
2023/03/04 05:30:18;;;;;;;;;;;11.70;46.50;;;;;;4990508;28;19926;-89
2023/03/04 05:32:43;;;;;;;;;;;11.60;46.60;;;;;;4990637;28;19953;-89
2023/03/04 05:35:09;;;;;;;;;;;11.50;46.70;;;;;;4995139;28;19953;-91
2023/03/04 05:37:35;;;;;;;;;;;11.50;46.80;;;;;;4991869;28;19945;-90
2023/03/04 05:40:00;;;;;;;;;;;11.50;46.90;;;;;;4993038;28;19924;-90
2023/03/04 05:42:28;;;;;;;;;;;11.50;47.10;;;;;;4991914;28;22354;-88
2023/03/04 05:44:54;;;;;;;;;;;11.50;47.20;;;;;;4993658;28;20303;-95
2023/03/04 05:47:20;;;;;;;;;;;11.40;47.30;;;;;;4991050;28;19964;-89
2023/03/04 05:49:45;;;;;;;;;;;11.40;47.30;;;;;;4990090;28;20577;-91
2023/03/04 05:52:12;;;;;;;;;;;11.40;47.40;;;;;;4992140;28;19918;-92
2023/03/04 05:54:37;;;;;;;;;;;11.40;47.50;;;;;;4994712;28;19917;-89
2023/03/04 05:57:03;;;;;;;;;;;11.30;47.60;;;;;;4990024;28;19918;-92
2023/03/04 05:59:28;;;;;;;;;;;11.20;47.80;;;;;;4990430;28;20395;-90
2023/03/04 06:01:54;;;;;;;;;;;11.10;48.10;;;;;;4993642;28;19972;-89
2023/03/04 06:04:19;;;;;;;;;;;11.00;48.60;;;;;;4993133;28;19921;-91
2023/03/04 06:06:46;;;;;;;;;;;10.90;49.00;;;;;;4992843;28;19958;-91
2023/03/04 06:09:12;;;;;;;;;;;10.80;50.00;;;;;;4984090;28;20384;-92
2023/03/04 06:11:40;;;;;;;;;;;10.80;50.90;;;;;;4973709;28;19965;-92
2023/03/04 06:14:06;;;;;;;;;;;10.70;51.60;;;;;;4970614;28;19921;-91
2023/03/04 06:16:31;;;;;;;;;;;10.50;52.50;;;;;;4973977;28;19918;-89
2023/03/04 06:18:57;;;;;;;;;;;10.50;53.40;;;;;;4984155;28;19917;-89
2023/03/04 06:21:23;;;;;;;;;;;10.50;54.30;;;;;;4990694;28;19918;-91
2023/03/04 06:23:48;;;;;;;;;;;10.40;54.90;;;;;;4995451;28;19921;-91
2023/03/04 06:26:14;;;;;;;;;;;10.40;55.40;;;;;;4997268;28;19922;-94
2023/03/04 06:28:41;;;;;;;;;;;10.50;56.00;;;;;;4994210;28;20034;-93
2023/03/04 06:31:07;;;;;;;;;;;10.50;56.40;;;;;;4997174;28;20316;-90
2023/03/04 06:33:33;;;;;;;;;;;10.50;56.70;;;;;;4993461;28;19973;-92
2023/03/04 06:35:58;;;;;;;;;;;10.50;57.10;;;;;;4994677;28;20016;-91
2023/03/04 06:38:24;;;;;;;;;;;10.50;57.30;;;;;;4994965;28;19913;-92
2023/03/04 06:40:50;;;;;;;;;;;10.40;57.90;;;;;;4993160;28;19926;-90
2023/03/04 06:43:16;;;;;;;;;;;10.50;58.10;;;;;;4994751;28;20305;-92
2023/03/04 06:45:42;;;;;;;;;;;10.50;58.50;;;;;;4994626;28;19929;-93
2023/03/04 06:48:11;;;;;;;;;;;10.50;58.80;;;;;;4996246;28;19914;-93
2023/03/04 06:50:40;;;;;;;;;;;10.50;59.10;;;;;;4997070;28;20313;-91
2023/03/04 06:53:06;;;;;;;;;;;10.50;59.20;;;;;;5010024;28;20412;-94
2023/03/04 06:55:31;;;;;;;;;;;10.60;59.60;;;;;;4997879;28;20517;-92
2023/03/04 06:57:57;;;;;;;;;;;10.60;60.00;;;;;;4994156;28;19977;-92
2023/03/04 07:00:23;;;;;;;;;;;10.70;60.20;;;;;;4996122;28;19929;-92
2023/03/04 07:02:49;;;;;;;;;;;10.80;60.30;;;;;;4995094;28;19910;-90
2023/03/04 07:05:16;;;;;;;;;;;10.80;60.50;;;;;;4992691;28;20401;-90
2023/03/04 07:07:43;;;;;;;;;;;11.00;60.60;;;;;;4996670;28;20258;-92
2023/03/04 07:10:09;;;;;;;;;;;11.00;60.70;;;;;;4995630;28;20230;-90
2023/03/04 07:12:37;;;;;;;;;;;11.20;60.80;;;;;;4993652;28;20443;-91
2023/03/04 07:15:02;;;;;;;;;;;11.20;60.90;;;;;;4994955;28;19984;-91
2023/03/04 07:17:28;;;;;;;;;;;11.30;61.00;;;;;;4998889;28;19918;-92
2023/03/04 07:19:53;;;;;;;;;;;11.30;61.10;;;;;;4992952;28;19959;-90
2023/03/04 07:22:19;;;;;;;;;;;11.50;61.30;;;;;;4995853;28;19918;-90
2023/03/04 07:24:45;;;;;;;;;;;11.50;61.40;;;;;;4994974;28;19916;-90
2023/03/04 07:27:11;;;;;;;;;;;11.70;61.40;;;;;;4997295;28;20297;-93
2023/03/04 07:29:42;;;;;;;;;;;11.70;61.30;;;;;;4997264;28;19910;-91
2023/03/04 07:32:07;;;;;;;;;;;11.80;61.40;;;;;;5001717;28;19936;-91
2023/03/04 07:34:33;;;;;;;;;;;11.90;61.50;;;;;;4996452;28;19914;-91
2023/03/04 07:36:59;;;;;;;;;;;12.00;61.40;;;;;;4995341;28;20317;-93
2023/03/04 07:39:24;;;;;;;;;;;12.10;61.20;;;;;;4996138;28;20001;-91
2023/03/04 07:41:52;;;;;;;;;;;12.10;61.10;;;;;;4996975;28;19921;-93
2023/03/04 07:44:18;;;;;;;;;;;12.10;61.20;;;;;;4994470;28;19921;-91
2023/03/04 07:46:44;;;;;;;;;;;12.20;61.00;;;;;;4992079;28;19922;-92
2023/03/04 07:49:13;;;;;;;;;;;12.30;61.10;;;;;;4995379;28;20000;-92
2023/03/04 07:51:39;;;;;;;;;;;12.30;61.20;;;;;;4995591;28;19925;-90
2023/03/04 07:54:08;;;;;;;;;;;12.40;61.10;;;;;;4995980;28;19987;-93
2023/03/04 07:56:35;;;;;;;;;;;12.40;61.20;;;;;;4996672;28;19922;-92
2023/03/04 07:59:01;;;;;;;;;;;12.50;61.40;;;;;;4997145;28;19942;-94
2023/03/04 08:01:31;;;;;;;;;;;12.60;61.60;;;;;;4993354;28;19941;-92
2023/03/04 08:03:57;;;;;;;;;;;12.70;61.60;;;;;;4996137;28;19956;-93
2023/03/04 08:06:23;;;;;;;;;;;12.80;61.50;;;;;;4996400;28;19921;-91
2023/03/04 08:08:53;;;;;;;;;;;12.90;61.40;;;;;;4995172;28;19910;-90
2023/03/04 08:11:20;;;;;;;;;;;13.00;61.40;;;;;;4995697;28;19925;-93
2023/03/04 08:13:45;;;;;;;;;;;13.00;61.30;;;;;;4995056;28;19910;-91
2023/03/04 08:16:14;;;;;;;;;;;13.20;61.40;;;;;;4994128;28;19925;-92
2023/03/04 08:18:40;;;;;;;;;;;13.20;61.40;;;;;;4996256;28;19964;-90
2023/03/04 08:21:13;;;;;;;;;;;13.20;61.00;;;;;;4995772;28;20052;-93
2023/03/04 08:23:41;;;;;;;;;;;13.20;60.90;;;;;;4997823;28;20368;-91
2023/03/04 08:26:08;;;;;;;;;;;13.10;61.00;;;;;;4992856;28;20388;-93
2023/03/04 08:28:34;;;;;;;;;;;13.10;61.20;;;;;;4996092;28;19910;-91
2023/03/04 08:31:00;;;;;;;;;;;13.10;60.90;;;;;;4994835;28;20432;-91
2023/03/04 08:33:29;;;;;;;;;;;13.10;61.00;;;;;;4993466;28;20008;-92
2023/03/04 08:35:58;;;;;;;;;;;13.10;61.10;;;;;;4991997;28;19929;-93
2023/03/04 08:38:30;;;;;;;;;;;13.10;61.30;;;;;;5002415;28;19922;-95
2023/03/04 08:40:56;;;;;;;;;;;13.20;61.60;;;;;;4998720;28;19921;-92
2023/03/04 08:43:25;;;;;;;;;;;13.30;61.70;;;;;;4994241;28;19948;-94
2023/03/04 08:45:52;;;;;;;;;;;13.40;61.80;;;;;;4996497;28;19918;-91
2023/03/04 08:48:18;;;;;;;;;;;13.50;62.40;;;;;;4993717;28;19922;-91
2023/03/04 08:50:44;;;;;;;;;;;13.70;62.10;;;;;;4993174;28;19926;-91
2023/03/04 08:53:10;;;;;;;;;;;13.80;62.00;;;;;;4996416;28;19917;-91
2023/03/04 08:55:37;;;;;;;;;;;14.00;62.10;;;;;;4994252;28;19976;-92
2023/03/04 08:58:02;;;;;;;;;;;14.00;61.60;;;;;;4995477;28;19975;-92
2023/03/04 09:00:28;;;;;;;;;;;14.10;61.60;;;;;;4989165;28;19918;-92
2023/03/04 09:02:54;;;;;;;;;;;14.10;61.60;;;;;;4989438;28;19920;-92
2023/03/04 09:05:21;;;;;;;;;;;14.20;61.30;;;;;;4992383;28;19952;-92
2023/03/04 09:07:46;;;;;;;;;;;14.20;61.30;;;;;;4992683;28;20008;-90
2023/03/04 09:10:12;;;;;;;;;;;14.20;61.20;;;;;;4993189;28;20016;-91
2023/03/04 09:12:40;;;;;;;;;;;14.20;61.30;;;;;;4991845;28;19920;-94
2023/03/04 09:15:06;;;;;;;;;;;14.30;61.20;;;;;;4993260;28;19914;-91
2023/03/04 09:17:32;;;;;;;;;;;14.30;61.10;;;;;;4988582;28;20012;-90
2023/03/04 09:19:58;;;;;;;;;;;14.30;61.20;;;;;;4984941;28;20012;-92
2023/03/04 09:22:24;;;;;;;;;;;14.30;60.80;;;;;;4996773;28;20278;-94
2023/03/04 09:24:49;;;;;;;;;;;14.20;60.60;;;;;;4989028;28;20791;-89
2023/03/04 09:27:15;;;;;;;;;;;14.10;60.80;;;;;;4987802;28;19918;-93
2023/03/04 09:29:44;;;;;;;;;;;14.00;60.70;;;;;;4990016;28;19914;-93
2023/03/04 09:32:10;;;;;;;;;;;13.90;60.90;;;;;;4993799;28;19921;-90
2023/03/04 09:34:36;;;;;;;;;;;13.90;61.10;;;;;;4993919;28;19914;-92
2023/03/04 09:37:01;;;;;;;;;;;13.80;61.10;;;;;;4987858;28;19924;-89
2023/03/04 09:39:27;;;;;;;;;;;13.80;61.00;;;;;;4988707;28;20000;-90
2023/03/04 09:41:56;;;;;;;;;;;13.70;61.00;;;;;;4988893;28;19918;-91
2023/03/04 09:44:35;;;;;;;;;;;13.70;60.90;;;;;;4991679;28;19967;-91
2023/03/04 09:47:14;;;;;;;;;;;13.70;61.30;;;;;;4988000;28;19921;-92
2023/03/04 09:49:41;;;;;;;;;;;13.90;62.30;;;;;;4988080;28;19918;-91
2023/03/04 09:52:25;;;;;;;;;;;14.20;62.60;;;;;;4993222;28;20064;-93
2023/03/04 09:55:00;;;;;;;;;;;14.30;62.40;;;;;;4990787;28;19920;-95
2023/03/04 09:57:36;;;;;;;;;;;14.40;62.20;;;;;;4990848;28;19918;-92
2023/03/04 10:00:03;;;;;;;;;;;14.40;61.80;;;;;;4985934;28;19918;-93
2023/03/04 10:02:37;;;;;;;;;;;14.40;61.80;;;;;;4987752;28;19917;-91
2023/03/04 10:05:05;;;;;;;;;;;14.40;61.80;;;;;;4987048;28;19941;-94
2023/03/04 10:07:34;;;;;;;;;;;14.60;62.10;;;;;;4988909;28;20385;-93
2023/03/04 10:10:02;;;;;;;;;;;14.80;62.30;;;;;;4996207;28;19918;-90
2023/03/04 10:12:30;;;;;;;;;;;14.90;61.90;;;;;;4989205;28;19922;-93
2023/03/04 10:15:01;;;;;;;;;;;15.10;62.10;;;;;;4988673;28;19957;-92
2023/03/04 10:17:36;;;;;;;;;;;15.30;62.20;;;;;;4985441;28;19984;-93
2023/03/04 10:20:08;;;;;;;;;;;15.40;62.00;;;;;;4985565;28;19910;-93
2023/03/04 10:22:35;;;;;;;;;;;15.50;61.80;;;;;;4986346;28;19933;-92
2023/03/04 10:25:13;;;;;;;;;;;15.50;61.80;;;;;;4988805;28;19917;-91
2023/03/04 10:27:41;;;;;;;;;;;15.50;61.70;;;;;;4988799;28;19917;-92
2023/03/04 10:30:25;;;;;;;;;;;15.30;61.50;;;;;;4989655;28;20108;-90
2023/03/04 10:32:54;;;;;;;;;;;15.20;61.60;;;;;;4998843;28;19921;-92
2023/03/04 10:35:25;;;;;;;;;;;15.00;61.00;;;;;;4988728;28;19910;-92
2023/03/04 10:37:51;;;;;;;;;;;14.80;61.40;;;;;;4990347;28;19910;-91
2023/03/04 10:40:22;;;;;;;;;;;14.80;61.70;;;;;;4991657;28;19928;-93
2023/03/04 10:42:50;;;;;;;;;;;14.80;62.00;;;;;;4993010;28;19929;-90
2023/03/04 10:45:23;;;;;;;;;;;14.70;62.00;;;;;;4993892;28;19917;-92
2023/03/04 10:48:01;;;;;;;;;;;14.70;61.90;;;;;;4987514;28;19929;-92
2023/03/04 10:50:31;;;;;;;;;;;14.60;61.90;;;;;;4993099;28;20012;-94
2023/03/04 10:53:08;;;;;;;;;;;14.50;61.90;;;;;;4985311;28;20011;-92
2023/03/04 10:55:44;;;;;;;;;;;14.60;62.30;;;;;;4988154;28;20056;-89
2023/03/04 10:58:14;;;;;;;;;;;14.60;62.40;;;;;;4987027;28;19922;-91
2023/03/04 11:03:50;;;;;;;;;;;14.50;62.10;;;;;;4986546;28;20037;-92
2023/03/04 11:06:17;;;;;;;;;;;14.40;61.50;;;;;;4992943;28;19949;-90
2023/03/04 11:08:43;;;;;;;;;;;14.40;62.30;;;;;;4987056;28;19961;-92
2023/03/04 11:11:29;;;;;;;;;;;14.50;62.00;;;;;;4993007;28;20416;-92
2023/03/04 11:14:11;;;;;;;;;;;14.60;62.40;;;;;;4989845;28;21142;-91
2023/03/04 11:16:39;;;;;;;;;;;14.70;62.50;;;;;;4996170;28;20332;-92
2023/03/04 11:19:32;;;;;;;;;;;14.80;62.20;;;;;;5023204;28;19925;-91
2023/03/04 11:22:01;;;;;;;;;;;14.90;61.50;;;;;;5051835;28;19914;-90
2023/03/04 11:24:35;;;;;;;;;;;15.00;62.30;;;;;;5032632;28;19925;-91
2023/03/04 11:27:04;;;;;;;;;;;15.00;62.30;;;;;;5037600;28;19909;-93
2023/03/04 11:29:35;;;;;;;;;;;15.00;62.20;;;;;;5036546;28;20081;-90
2023/03/04 11:32:01;;;;;;;;;;;14.90;61.80;;;;;;5033716;28;19939;-93
2023/03/04 11:34:29;;;;;;;;;;;14.80;60.90;;;;;;5032790;28;19921;-93
2023/03/04 11:40:21;;;;;;;;;;;14.40;59.00;;;;;;5013937;28;20283;-91
2023/03/04 11:43:01;;;;;;;;;;;14.20;58.50;;;;;;5034002;28;19955;-92
2023/03/04 11:45:37;;;;;;;;;;;13.90;58.90;;;;;;5033601;28;19979;-92
2023/03/04 11:48:03;;;;;;;;;;;13.80;59.20;;;;;;5029040;28;20319;-91
2023/03/04 11:50:34;;;;;;;;;;;13.70;58.10;;;;;;5035310;28;20355;-92
2023/03/04 11:53:14;;;;;;;;;;;13.50;58.20;;;;;;5038574;28;19917;-92
2023/03/04 11:58:57;;;;;;;;;;;13.40;59.30;;;;;;5033903;28;19923;-94
2023/03/04 12:01:25;;;;;;;;;;;13.50;60.20;;;;;;5029638;28;19923;-90
2023/03/04 12:04:16;;;;;;;;;;;13.70;61.30;;;;;;5025766;28;19925;-91
2023/03/04 12:06:44;;;;;;;;;;;14.00;60.80;;;;;;5027311;28;19967;-90
2023/03/04 12:09:41;;;;;;;;;;;14.20;60.60;;;;;;5029011;28;19917;-92
2023/03/04 12:12:20;;;;;;;;;;;14.40;61.10;;;;;;5030520;28;19917;-92
2023/03/04 12:15:29;;;;;;;;;;;14.70;61.70;;;;;;5027769;28;19986;-90
2023/03/04 12:18:14;;;;;;;;;;;;;;;;;;;;;
2023/03/04 12:21:00;;;;;;;;;;;15.10;61.70;;;;;;4959883;28;20272;-92
2023/03/04 12:23:51;;;;;;;;;;;15.30;61.50;;;;;;4972254;28;19918;-90
2023/03/04 12:27:00;;;;;;;;;;;15.50;61.80;;;;;;5006432;28;20265;-94
2023/03/04 12:30:07;;;;;;;;;;;15.70;62.10;;;;;;5028850;28;19917;-93
2023/03/04 12:33:12;;;;;;;;;;;16.00;61.70;;;;;;5000924;28;19968;-90
2023/03/04 12:35:57;;;;;;;;;;;16.40;62.30;;;;;;5025140;28;20003;-90
2023/03/04 12:38:49;;;;;;;;;;;16.80;58.70;;;;;;5028825;28;19913;-91
2023/03/04 12:47:43;;;;;;;;;;;;;;;;;;;;;
2023/03/04 12:50:28;;;;;;;;;;;17.10;57.70;;;;;;5014343;28;19923;-93
2023/03/04 12:53:08;;;;;;;;;;;16.90;57.20;;;;;;5029136;28;19917;-90
2023/03/04 12:55:50;;;;;;;;;;;;;;;;;;;;;
2023/03/04 12:58:22;;;;;;;;;;;16.70;56.20;;;;;;5049813;28;19921;-90
2023/03/04 13:00:56;;;;;;;;;;;16.50;55.80;;;;;;5050317;28;19913;-92
2023/03/04 13:03:30;;;;;;;;;;;16.40;54.20;;;;;;5049030;28;19991;-91
2023/03/04 13:06:17;;;;;;;;;;;16.30;53.00;;;;;;5028030;28;20000;-94
2023/03/04 13:08:52;;;;;;;;;;;16.10;52.40;;;;;;5029811;28;19913;-91
2023/03/04 13:11:35;;;;;;;;;;;16.00;53.40;;;;;;5028383;28;19929;-93
2023/03/04 13:14:17;;;;;;;;;;;16.00;54.10;;;;;;5026282;28;19921;-94
2023/03/04 13:17:15;;;;;;;;;;;;;;;;;;;;;
2023/03/04 13:20:12;;;;;;;;;;;16.20;54.90;;;;;;5030947;28;19910;-93
2023/03/04 13:22:40;;;;;;;;;;;16.20;55.30;;;;;;5017109;28;19921;-92
2023/03/04 13:25:24;;;;;;;;;;;16.20;52.70;;;;;;5024990;28;20313;-92
2023/03/04 13:28:01;;;;;;;;;;;16.10;52.70;;;;;;5029490;28;19932;-93
2023/03/04 13:34:17;;;;;;;;;;;15.60;51.40;;;;;;4992583;28;19913;-92
2023/03/04 13:37:19;;;;;;;;;;;15.30;50.60;;;;;;4998377;28;19925;-94
2023/03/04 13:40:17;;;;;;;;;;;15.00;52.60;;;;;;4939260;28;19915;-94
2023/03/04 13:43:08;;;;;;;;;;;14.90;52.80;;;;;;4962260;28;19977;-93
2023/03/04 13:45:45;;;;;;;;;;;;;;;;;;;;;
2023/03/04 13:48:38;;;;;;;;;;;14.90;50.60;;;;;;4949877;29;19949;-91
2023/03/04 13:51:50;;;;;;;;;;;14.80;50.50;;;;;;4948049;29;20038;-91
2023/03/04 13:54:30;;;;;;;;;;;;;;;;;;;;;
2023/03/04 13:57:02;;;;;;;;;;;14.80;51.50;;;;;;5030286;28;20375;-92
2023/03/04 13:59:59;;;;;;;;;;;14.90;50.50;;;;;;5028565;28;19936;-92
2023/03/04 14:02:26;;;;;;;;;;;14.80;49.50;;;;;;5009624;28;19943;-93
2023/03/04 14:05:05;;;;;;;;;;;14.80;49.50;;;;;;5025764;28;19920;-92
2023/03/04 14:07:33;;;;;;;;;;;14.90;50.10;;;;;;5021794;28;20275;-93
2023/03/04 14:10:04;;;;;;;;;;;15.00;49.30;;;;;;5015384;28;19921;-92
2023/03/04 14:12:52;;;;;;;;;;;15.10;49.30;;;;;;5022973;28;19917;-90
2023/03/04 14:15:30;;;;;;;;;;;15.20;48.30;;;;;;5006940;28;19917;-92
2023/03/04 14:18:02;;;;;;;;;;;15.20;48.50;;;;;;5011448;28;19952;-93
2023/03/04 14:20:31;;;;;;;;;;;15.30;49.90;;;;;;5011602;28;20287;-92
2023/03/04 14:23:01;;;;;;;;;;;15.40;48.10;;;;;;5023363;28;19926;-94
2023/03/04 14:25:31;;;;;;;;;;;15.30;45.90;;;;;;5003559;28;20080;-91
2023/03/04 14:28:10;;;;;;;;;;;15.20;47.00;;;;;;5011446;28;19927;-93
2023/03/04 14:30:36;;;;;;;;;;;15.30;47.80;;;;;;5026760;28;19925;-93
2023/03/04 14:33:05;;;;;;;;;;;15.20;46.40;;;;;;5012207;28;19917;-92
2023/03/04 14:35:31;;;;;;;;;;;15.20;46.80;;;;;;5007122;28;19956;-93
2023/03/04 14:37:58;;;;;;;;;;;15.10;47.00;;;;;;5021648;28;20050;-94
2023/03/04 14:40:26;;;;;;;;;;;15.00;46.60;;;;;;5017636;28;19924;-91
2023/03/04 14:42:57;;;;;;;;;;;15.00;46.40;;;;;;5009215;28;19913;-93
2023/03/04 14:45:25;;;;;;;;;;;15.00;45.80;;;;;;5005549;28;20010;-92
2023/03/04 14:47:51;;;;;;;;;;;14.90;45.80;;;;;;5002095;28;19960;-91
2023/03/04 14:50:23;;;;;;;;;;;14.90;45.40;;;;;;5010552;28;19940;-93
2023/03/04 14:53:07;;;;;;;;;;;14.80;45.40;;;;;;5034329;28;19920;-94
2023/03/04 14:55:53;;;;;;;;;;;14.90;45.90;;;;;;5027186;28;19983;-94
2023/03/04 14:59:01;;;;;;;;;;;;;;;;;;;;;